Beechwood, Michigan
Current Conditions -  °F | °C
As of 12:55 AM on Thursday 27 Nov 2014 (Local Time) from KLNL Reporting Station
Scattered Clouds Scattered Clouds  
Wind Chill: -1°   Ceiling: Unl
Heat Index: 12°   Visibility: 10mi
Dew Point:   Wind: 10mph
Humidity: 82%   Direction: 360°N
Pressure: 30.21"   Gusts: 16mph
Location:  46.2163°N, 88.7676°W
Report Text: KLNL 270655Z AUTO 36009G14KT 10SM SCT038 M11/M13 A3021 RMK AO2 T11091135
Loading
Personal Weather Stations






























Interactive Weather Map New forecast layout! Learn more

10-Day Weather Forecast

Advertisements
Track Severe Weather on mobile